Time;durP1;ratioP1;P1;durP2;ratioP2;P2;SDS_P1;SDS_P2;PMS_P1;PMS_P2;Temp;Humidity;BMP_temperature;BMP_pressure;BME280_temperature;BME280_humidity;BME280_pressure;Samples;Min_cycle;Max_cycle;Signal;HPM_P1;HPM_P2
2021/04/10 00:00:35;;;;;;;12.30;10.93;;;;;;;;;;5075139;28;20731;-65
2021/04/10 00:03:01;;;;;;;12.60;11.27;;;;;;;;;;5074840;28;20247;-65
2021/04/10 00:05:28;;;;;;;12.80;10.43;;;;;;;;;;5074615;28;20238;-65
2021/04/10 00:07:55;;;;;;;16.55;10.68;;;;;;;;;;5075121;28;20338;-65
2021/04/10 00:10:24;;;;;;;14.27;11.25;;;;;;;;;;5074761;28;20326;-65
2021/04/10 00:12:51;;;;;;;14.73;10.63;;;;;;;;;;5074228;28;20234;-65
2021/04/10 00:15:18;;;;;;;13.32;11.55;;;;;;;;;;5074111;28;20707;-65
2021/04/10 00:17:46;;;;;;;15.65;11.40;;;;;;;;;;5074391;28;20260;-65
2021/04/10 00:20:14;;;;;;;17.85;11.80;;;;;;;;;;5074006;28;20283;-65
2021/04/10 00:22:41;;;;;;;13.57;11.60;;;;;;;;;;5073973;28;20681;-65
2021/04/10 00:25:09;;;;;;;16.30;12.57;;;;;;;;;;5074007;28;21019;-66
2021/04/10 00:27:36;;;;;;;12.07;10.85;;;;;;;;;;5074752;28;20200;-65
2021/04/10 00:30:03;;;;;;;12.02;10.82;;;;;;;;;;5074171;28;20283;-65
2021/04/10 00:32:29;;;;;;;23.00;13.10;;;;;;;;;;5073702;28;20723;-64
2021/04/10 00:34:57;;;;;;;14.35;12.85;;;;;;;;;;5074105;28;20239;-65
2021/04/10 00:37:24;;;;;;;18.70;13.07;;;;;;;;;;5074060;28;20192;-67
2021/04/10 00:39:50;;;;;;;15.18;13.50;;;;;;;;;;5073830;28;20632;-65
2021/04/10 00:42:17;;;;;;;14.60;13.07;;;;;;;;;;5074105;28;20232;-66
2021/04/10 00:44:44;;;;;;;15.85;14.20;;;;;;;;;;5073563;28;20707;-64
2021/04/10 00:47:11;;;;;;;15.18;13.02;;;;;;;;;;5073589;28;20282;-64
2021/04/10 00:49:38;;;;;;;15.90;14.20;;;;;;;;;;5073546;28;20660;-64
2021/04/10 00:52:07;;;;;;;13.77;12.23;;;;;;;;;;5073826;28;20323;-64
2021/04/10 00:54:35;;;;;;;16.30;13.93;;;;;;;;;;5073522;28;20285;-65
2021/04/10 00:57:02;;;;;;;15.43;13.80;;;;;;;;;;5073432;28;20638;-64
2021/04/10 00:59:29;;;;;;;18.70;14.32;;;;;;;;;;5072930;28;20707;-64
2021/04/10 01:01:55;;;;;;;19.83;14.35;;;;;;;;;;5073790;28;20199;-64
2021/04/10 01:04:22;;;;;;;17.67;14.45;;;;;;;;;;5073321;28;20727;-65
2021/04/10 01:06:49;;;;;;;18.20;15.00;;;;;;;;;;5073816;28;20301;-65
2021/04/10 01:09:16;;;;;;;17.13;15.32;;;;;;;;;;5073681;28;20202;-65
2021/04/10 01:11:53;;;;;;;24.27;16.58;;;;;;;;;;5073238;28;20307;-65
2021/04/10 01:14:23;;;;;;;20.08;14.50;;;;;;;;;;5073721;28;20640;-64
2021/04/10 01:16:52;;;;;;;20.23;15.18;;;;;;;;;;5074188;28;20317;-64
2021/04/10 01:19:28;;;;;;;19.73;16.52;;;;;;;;;;5073906;28;20229;-64
2021/04/10 01:22:04;;;;;;;19.05;16.15;;;;;;;;;;5073592;28;20217;-65
2021/04/10 01:24:36;;;;;;;22.95;16.00;;;;;;;;;;5073782;28;20180;-64
2021/04/10 01:27:21;;;;;;;19.85;15.52;;;;;;;;;;5073750;28;20277;-64
2021/04/10 01:29:51;;;;;;;24.23;15.00;;;;;;;;;;5073451;28;20191;-64
2021/04/10 01:32:19;;;;;;;20.98;14.55;;;;;;;;;;5073551;28;20316;-64
2021/04/10 01:34:47;;;;;;;24.02;16.45;;;;;;;;;;5073827;28;20226;-64
2021/04/10 01:37:15;;;;;;;21.75;14.30;;;;;;;;;;5074008;28;20359;-65
2021/04/10 01:39:42;;;;;;;18.88;13.20;;;;;;;;;;5073020;28;20282;-64
2021/04/10 01:42:10;;;;;;;21.65;14.90;;;;;;;;;;5073545;28;20662;-64
2021/04/10 01:44:37;;;;;;;18.60;14.60;;;;;;;;;;5072825;28;20222;-65
2021/04/10 01:47:06;;;;;;;20.98;13.60;;;;;;;;;;5072966;28;20282;-65
2021/04/10 01:49:32;;;;;;;21.33;13.20;;;;;;;;;;5073244;28;20277;-64
2021/04/10 01:52:00;;;;;;;26.75;13.38;;;;;;;;;;5073532;28;20263;-65
2021/04/10 01:54:26;;;;;;;22.33;12.80;;;;;;;;;;5072873;28;20285;-65
2021/04/10 01:56:53;;;;;;;17.55;11.82;;;;;;;;;;5072852;28;20286;-64
2021/04/10 01:59:21;;;;;;;16.48;11.60;;;;;;;;;;5073281;28;20234;-65
2021/04/10 02:01:49;;;;;;;16.23;12.60;;;;;;;;;;5072838;28;20205;-64
2021/04/10 02:04:17;;;;;;;16.23;12.35;;;;;;;;;;5073548;28;20250;-65
2021/04/10 02:06:45;;;;;;;18.10;13.13;;;;;;;;;;5073029;28;20764;-64
2021/04/10 02:09:12;;;;;;;18.40;12.35;;;;;;;;;;5073052;28;20540;-64
2021/04/10 02:11:40;;;;;;;18.95;13.50;;;;;;;;;;5075001;28;20310;-64
2021/04/10 02:14:07;;;;;;;16.23;11.45;;;;;;;;;;5076760;28;20281;-65
2021/04/10 02:16:33;;;;;;;15.82;12.32;;;;;;;;;;5076497;28;20241;-65
2021/04/10 02:19:01;;;;;;;23.33;13.52;;;;;;;;;;5076665;28;20204;-64
2021/04/10 02:21:28;;;;;;;16.95;12.38;;;;;;;;;;5076805;28;20282;-64
2021/04/10 02:23:55;;;;;;;17.58;13.60;;;;;;;;;;5076327;28;20284;-64
2021/04/10 02:26:22;;;;;;;19.05;13.80;;;;;;;;;;5076463;28;20235;-65
2021/04/10 02:28:49;;;;;;;19.75;13.40;;;;;;;;;;5076165;28;20200;-64
2021/04/10 02:31:28;;;;;;;23.83;14.02;;;;;;;;;;5076428;28;20325;-64
2021/04/10 02:33:56;;;;;;;21.10;12.88;;;;;;;;;;5076987;28;20522;-64
2021/04/10 02:36:24;;;;;;;24.42;12.43;;;;;;;;;;5076337;28;20224;-65
2021/04/10 02:38:54;;;;;;;19.30;12.90;;;;;;;;;;5076608;28;20237;-64
2021/04/10 02:41:22;;;;;;;17.38;12.82;;;;;;;;;;5076601;28;20192;-64
2021/04/10 02:43:52;;;;;;;31.98;16.00;;;;;;;;;;5076030;28;20350;-64
2021/04/10 02:46:21;;;;;;;20.10;14.05;;;;;;;;;;5076488;28;20257;-64
2021/04/10 02:48:52;;;;;;;19.02;12.98;;;;;;;;;;5075812;28;20231;-65
2021/04/10 02:51:19;;;;;;;20.10;12.95;;;;;;;;;;5075703;28;20762;-64
2021/04/10 02:53:47;;;;;;;18.88;13.57;;;;;;;;;;5076014;28;20657;-65
2021/04/10 02:56:16;;;;;;;20.20;13.80;;;;;;;;;;5076481;28;20240;-64
2021/04/10 02:58:46;;;;;;;20.83;12.75;;;;;;;;;;5075676;28;20661;-64
2021/04/10 03:01:15;;;;;;;19.70;13.15;;;;;;;;;;5075630;28;20223;-65
2021/04/10 03:03:42;;;;;;;18.90;13.63;;;;;;;;;;5075843;28;20343;-64
2021/04/10 03:06:09;;;;;;;20.88;12.75;;;;;;;;;;5075816;28;20600;-64
2021/04/10 03:08:36;;;;;;;22.50;13.25;;;;;;;;;;5076578;28;20294;-64
2021/04/10 03:11:03;;;;;;;17.08;12.10;;;;;;;;;;5075663;28;20250;-64
2021/04/10 03:13:33;;;;;;;18.80;11.85;;;;;;;;;;5075816;28;20279;-64
2021/04/10 03:15:59;;;;;;;16.88;11.68;;;;;;;;;;5075337;28;20281;-64
2021/04/10 03:18:26;;;;;;;18.02;11.55;;;;;;;;;;5075980;28;20237;-65
2021/04/10 03:20:53;;;;;;;15.13;10.30;;;;;;;;;;5075224;28;20657;-66
2021/04/10 03:23:20;;;;;;;17.58;11.52;;;;;;;;;;5074255;28;20332;-65
2021/04/10 03:25:47;;;;;;;22.48;11.27;;;;;;;;;;5075700;28;20191;-65
2021/04/10 03:28:14;;;;;;;17.05;10.32;;;;;;;;;;5075391;28;20281;-65
2021/04/10 03:30:41;;;;;;;17.30;9.30;;;;;;;;;;5075274;28;20240;-65
2021/04/10 03:33:08;;;;;;;12.20;8.95;;;;;;;;;;5074995;28;20746;-64
2021/04/10 03:35:36;;;;;;;14.88;8.20;;;;;;;;;;5074951;28;20203;-65
2021/04/10 03:38:02;;;;;;;14.05;9.43;;;;;;;;;;5074888;28;20285;-65
2021/04/10 03:40:29;;;;;;;12.93;8.85;;;;;;;;;;5075738;28;20606;-66
2021/04/10 03:42:56;;;;;;;15.73;9.10;;;;;;;;;;5074584;28;20233;-64
2021/04/10 03:45:23;;;;;;;15.60;8.65;;;;;;;;;;5074739;28;20220;-65
2021/04/10 03:47:51;;;;;;;13.88;10.05;;;;;;;;;;5075024;28;20194;-65
2021/04/10 03:50:18;;;;;;;20.58;9.18;;;;;;;;;;5074975;28;20203;-66
2021/04/10 03:52:45;;;;;;;18.17;11.20;;;;;;;;;;5077524;28;20300;-66
2021/04/10 03:55:12;;;;;;;19.58;8.43;;;;;;;;;;5078769;28;20231;-66
2021/04/10 03:57:39;;;;;;;14.27;9.90;;;;;;;;;;5077310;28;20198;-66
2021/04/10 04:00:07;;;;;;;13.48;8.93;;;;;;;;;;5075842;28;20195;-66
2021/04/10 04:02:33;;;;;;;15.73;9.52;;;;;;;;;;5075351;28;20195;-66
2021/04/10 04:05:01;;;;;;;17.50;8.95;;;;;;;;;;5077122;28;20229;-66
2021/04/10 04:07:28;;;;;;;16.23;10.20;;;;;;;;;;5075990;28;20230;-66
2021/04/10 04:09:54;;;;;;;16.35;9.77;;;;;;;;;;5074606;28;20302;-65
2021/04/10 04:12:21;;;;;;;13.32;9.27;;;;;;;;;;5074533;28;20269;-65
2021/04/10 04:14:48;;;;;;;15.02;10.05;;;;;;;;;;5074820;28;20555;-65
2021/04/10 04:17:15;;;;;;;16.58;11.13;;;;;;;;;;5074155;28;20283;-65
2021/04/10 04:19:41;;;;;;;23.80;11.48;;;;;;;;;;5074457;28;20282;-66
2021/04/10 04:22:09;;;;;;;17.85;9.52;;;;;;;;;;5074336;28;20249;-65
2021/04/10 04:24:36;;;;;;;15.00;9.13;;;;;;;;;;5074403;28;20194;-66
2021/04/10 04:27:04;;;;;;;19.05;10.93;;;;;;;;;;5074240;28;20283;-65
2021/04/10 04:29:30;;;;;;;18.70;11.38;;;;;;;;;;5074127;28;20194;-66
2021/04/10 04:31:57;;;;;;;16.42;11.20;;;;;;;;;;5074050;28;20322;-65
2021/04/10 04:34:24;;;;;;;15.70;9.88;;;;;;;;;;5074021;28;20652;-65
2021/04/10 04:36:50;;;;;;;18.38;10.48;;;;;;;;;;5073752;28;20281;-66
2021/04/10 04:39:18;;;;;;;15.70;10.45;;;;;;;;;;5074045;28;20282;-65
2021/04/10 04:41:45;;;;;;;16.13;11.35;;;;;;;;;;5073674;28;20705;-64
2021/04/10 04:44:12;;;;;;;21.65;10.63;;;;;;;;;;5073638;28;20317;-65
2021/04/10 04:46:38;;;;;;;20.45;11.15;;;;;;;;;;5073591;28;20385;-65
2021/04/10 04:49:05;;;;;;;16.27;10.05;;;;;;;;;;5073852;28;20281;-65
2021/04/10 04:51:32;;;;;;;19.30;10.65;;;;;;;;;;5073652;28;20263;-65
2021/04/10 04:53:59;;;;;;;21.58;12.27;;;;;;;;;;5073800;28;20281;-65
2021/04/10 04:56:26;;;;;;;20.63;10.82;;;;;;;;;;5073892;28;20245;-65
2021/04/10 04:58:53;;;;;;;19.58;11.70;;;;;;;;;;5073375;28;20230;-65
2021/04/10 05:01:20;;;;;;;17.50;11.40;;;;;;;;;;5073421;28;20290;-65
2021/04/10 05:03:46;;;;;;;22.85;13.00;;;;;;;;;;5073349;28;20285;-65
2021/04/10 05:06:13;;;;;;;24.33;13.20;;;;;;;;;;5073561;28;20346;-65
2021/04/10 05:08:40;;;;;;;19.10;13.23;;;;;;;;;;5063512;28;20281;-65
2021/04/10 05:11:07;;;;;;;18.98;12.43;;;;;;;;;;5053485;28;20301;-65
2021/04/10 05:13:35;;;;;;;24.33;14.15;;;;;;;;;;5053130;28;20282;-65
2021/04/10 05:16:01;;;;;;;23.33;14.05;;;;;;;;;;5053484;28;20260;-65
2021/04/10 05:18:28;;;;;;;28.10;13.38;;;;;;;;;;5052902;28;20281;-65
2021/04/10 05:20:55;;;;;;;23.80;12.32;;;;;;;;;;5053192;28;20231;-65
2021/04/10 05:23:22;;;;;;;20.48;13.50;;;;;;;;;;5053709;28;20278;-65
2021/04/10 05:25:49;;;;;;;23.98;14.10;;;;;;;;;;5053903;28;20287;-65
2021/04/10 05:28:15;;;;;;;23.40;15.45;;;;;;;;;;5053395;28;20286;-66
2021/04/10 05:30:43;;;;;;;20.48;13.65;;;;;;;;;;5053413;28;20341;-65
2021/04/10 05:33:10;;;;;;;26.90;14.05;;;;;;;;;;5053039;28;20196;-65
2021/04/10 05:35:37;;;;;;;22.92;14.65;;;;;;;;;;5053030;28;20287;-64
2021/04/10 05:38:04;;;;;;;19.75;14.02;;;;;;;;;;5052035;28;20279;-64
2021/04/10 05:40:31;;;;;;;20.98;14.80;;;;;;;;;;5053209;28;20255;-64
2021/04/10 05:42:57;;;;;;;26.27;16.15;;;;;;;;;;5052550;28;20287;-65
2021/04/10 05:45:24;;;;;;;26.38;14.30;;;;;;;;;;5052981;28;20186;-65
2021/04/10 05:47:52;;;;;;;22.77;14.35;;;;;;;;;;5056884;28;20287;-65
2021/04/10 05:50:19;;;;;;;23.55;14.57;;;;;;;;;;5057145;28;20304;-64
2021/04/10 05:52:47;;;;;;;25.88;15.25;;;;;;;;;;5057567;28;20560;-65
2021/04/10 05:55:13;;;;;;;20.27;14.85;;;;;;;;;;5057408;28;20584;-65
2021/04/10 05:57:40;;;;;;;21.83;14.55;;;;;;;;;;5056112;28;20227;-64
2021/04/10 06:00:07;;;;;;;21.25;14.23;;;;;;;;;;5057273;28;20282;-65
2021/04/10 06:02:34;;;;;;;24.45;13.77;;;;;;;;;;5056585;28;20264;-64
2021/04/10 06:05:02;;;;;;;17.40;12.30;;;;;;;;;;5057293;28;20278;-65
2021/04/10 06:07:29;;;;;;;23.30;13.52;;;;;;;;;;5056662;28;20231;-64
2021/04/10 06:09:56;;;;;;;17.98;12.85;;;;;;;;;;5057404;28;20283;-65
2021/04/10 06:12:22;;;;;;;17.65;12.38;;;;;;;;;;5056850;28;20311;-65
2021/04/10 06:14:49;;;;;;;23.13;12.15;;;;;;;;;;5056728;28;20630;-66
2021/04/10 06:17:16;;;;;;;19.33;11.48;;;;;;;;;;5056463;28;20728;-66
2021/04/10 06:19:43;;;;;;;20.25;11.35;;;;;;;;;;5056651;28;20332;-66
2021/04/10 06:22:10;;;;;;;23.15;11.60;;;;;;;;;;5056209;28;20334;-65
2021/04/10 06:24:37;;;;;;;16.60;10.93;;;;;;;;;;5056266;28;20727;-65
2021/04/10 06:27:04;;;;;;;16.85;10.70;;;;;;;;;;5056149;28;20236;-65
2021/04/10 06:29:31;;;;;;;12.80;9.38;;;;;;;;;;5056178;28;20238;-63
2021/04/10 06:31:58;;;;;;;19.63;10.70;;;;;;;;;;5056289;28;20306;-66
2021/04/10 06:34:24;;;;;;;18.38;9.50;;;;;;;;;;5056841;28;20724;-64
2021/04/10 06:36:51;;;;;;;19.63;9.57;;;;;;;;;;5055722;28;20359;-65
2021/04/10 06:39:19;;;;;;;15.30;9.80;;;;;;;;;;5056245;28;20240;-65
2021/04/10 06:41:45;;;;;;;13.50;9.02;;;;;;;;;;5055896;28;20195;-65
2021/04/10 06:44:12;;;;;;;26.13;10.60;;;;;;;;;;5056106;28;20235;-65
2021/04/10 06:46:39;;;;;;;15.00;9.85;;;;;;;;;;5055960;28;20741;-65
2021/04/10 06:49:06;;;;;;;14.85;9.45;;;;;;;;;;5055742;28;20201;-66
2021/04/10 06:51:33;;;;;;;22.70;12.38;;;;;;;;;;5056212;28;20793;-67
2021/04/10 06:54:02;;;;;;;20.65;11.00;;;;;;;;;;5055603;28;20198;-65
2021/04/10 06:56:32;;;;;;;15.40;8.75;;;;;;;;;;5055531;28;20723;-66
2021/04/10 06:59:05;;;;;;;17.23;8.82;;;;;;;;;;5054672;28;20270;-66
2021/04/10 07:01:32;;;;;;;29.35;15.27;;;;;;;;;;5056075;28;20197;-66
2021/04/10 07:03:59;;;;;;;15.68;9.82;;;;;;;;;;5055860;28;20195;-65
2021/04/10 07:06:26;;;;;;;24.35;10.50;;;;;;;;;;5056064;28;20227;-66
2021/04/10 07:08:53;;;;;;;13.43;8.32;;;;;;;;;;5055558;28;20562;-65
2021/04/10 07:11:19;;;;;;;21.60;9.50;;;;;;;;;;5055647;28;20629;-65
2021/04/10 07:13:47;;;;;;;18.85;8.07;;;;;;;;;;5055833;28;20290;-65
2021/04/10 07:16:14;;;;;;;15.20;7.47;;;;;;;;;;5056019;28;20607;-65
2021/04/10 07:18:41;;;;;;;15.50;7.75;;;;;;;;;;5055130;28;20199;-65
2021/04/10 07:21:17;;;;;;;16.88;9.20;;;;;;;;;;5055837;28;20200;-66
2021/04/10 07:23:45;;;;;;;13.77;8.30;;;;;;;;;;5055573;28;20223;-65
2021/04/10 07:26:12;;;;;;;15.13;8.30;;;;;;;;;;5055382;28;20645;-65
2021/04/10 07:28:39;;;;;;;20.90;10.13;;;;;;;;;;5055323;28;20243;-65
2021/04/10 07:31:07;;;;;;;15.85;6.97;;;;;;;;;;5054975;28;20236;-65
2021/04/10 07:33:34;;;;;;;23.00;8.45;;;;;;;;;;5054913;28;20235;-65
2021/04/10 07:36:02;;;;;;;15.07;8.05;;;;;;;;;;5054903;28;20282;-65
2021/04/10 07:38:30;;;;;;;21.63;8.05;;;;;;;;;;5054754;28;20254;-66
2021/04/10 07:40:57;;;;;;;18.90;8.00;;;;;;;;;;5055397;28;20584;-65
2021/04/10 07:43:25;;;;;;;12.38;8.70;;;;;;;;;;5054795;28;20578;-65
2021/04/10 07:46:10;;;;;;;19.30;9.02;;;;;;;;;;5055511;28;20211;-66
2021/04/10 07:48:37;;;;;;;20.95;9.27;;;;;;;;;;5054749;28;20272;-67
2021/04/10 07:51:04;;;;;;;13.80;8.13;;;;;;;;;;5054913;28;20198;-65
2021/04/10 07:53:31;;;;;;;17.45;9.90;;;;;;;;;;5055496;28;20199;-65
2021/04/10 07:55:59;;;;;;;17.88;8.65;;;;;;;;;;5055414;28;20591;-65
2021/04/10 07:58:30;;;;;;;16.35;7.18;;;;;;;;;;5054335;28;20191;-65
2021/04/10 08:00:58;;;;;;;18.65;7.60;;;;;;;;;;5054924;28;20218;-65
2021/04/10 08:03:29;;;;;;;18.52;7.88;;;;;;;;;;5054711;28;20227;-65
2021/04/10 08:05:57;;;;;;;20.98;8.95;;;;;;;;;;5054426;28;20225;-66
2021/04/10 08:08:25;;;;;;;10.38;7.43;;;;;;;;;;5053938;28;20283;-66
2021/04/10 08:11:01;;;;;;;16.48;8.32;;;;;;;;;;5054220;28;20249;-66
2021/04/10 08:13:27;;;;;;;12.00;8.15;;;;;;;;;;5054752;28;20286;-65
2021/04/10 08:16:14;;;;;;;20.27;8.95;;;;;;;;;;5054521;28;20630;-66
2021/04/10 08:18:44;;;;;;;16.15;7.35;;;;;;;;;;5053956;28;20230;-66
2021/04/10 08:21:12;;;;;;;17.38;7.78;;;;;;;;;;5054455;28;20231;-65
2021/04/10 08:23:39;;;;;;;14.98;8.52;;;;;;;;;;5054971;28;20233;-64
2021/04/10 08:26:06;;;;;;;17.10;8.45;;;;;;;;;;5054376;28;20602;-65
2021/04/10 08:28:33;;;;;;;16.55;9.18;;;;;;;;;;5053975;28;20245;-66
2021/04/10 08:30:59;;;;;;;15.60;8.98;;;;;;;;;;5054579;28;20199;-64
2021/04/10 08:33:27;;;;;;;20.50;9.70;;;;;;;;;;5053769;28;20708;-65
2021/04/10 08:35:55;;;;;;;12.30;9.63;;;;;;;;;;5054205;28;20242;-65
2021/04/10 08:38:24;;;;;;;16.30;9.18;;;;;;;;;;5053932;28;20394;-66
2021/04/10 08:40:52;;;;;;;15.90;9.65;;;;;;;;;;5054181;28;20657;-65
2021/04/10 08:43:20;;;;;;;13.90;8.90;;;;;;;;;;5054211;28;20225;-65
2021/04/10 08:45:50;;;;;;;17.98;10.13;;;;;;;;;;5053732;28;20189;-65
2021/04/10 08:48:20;;;;;;;15.50;9.88;;;;;;;;;;5053758;28;20230;-65
2021/04/10 08:50:50;;;;;;;20.52;9.52;;;;;;;;;;5053743;28;20184;-65
2021/04/10 08:53:19;;;;;;;14.98;10.30;;;;;;;;;;5053478;28;20263;-65
2021/04/10 08:55:47;;;;;;;21.63;10.73;;;;;;;;;;5054094;28;20196;-64
2021/04/10 08:58:19;;;;;;;17.40;10.88;;;;;;;;;;5054071;28;20245;-65
2021/04/10 09:00:45;;;;;;;22.92;11.30;;;;;;;;;;5053582;28;20220;-65
2021/04/10 09:03:12;;;;;;;19.15;10.20;;;;;;;;;;5053507;28;20287;-65
2021/04/10 09:05:46;;;;;;;19.08;11.35;;;;;;;;;;5056569;28;20573;-65
2021/04/10 09:08:23;;;;;;;26.75;11.60;;;;;;;;;;5057070;28;20237;-66
2021/04/10 09:10:55;;;;;;;17.73;11.55;;;;;;;;;;5057070;28;20188;-65
2021/04/10 09:13:42;;;;;;;20.17;13.43;;;;;;;;;;5054933;28;20279;-66
2021/04/10 09:16:29;;;;;;;18.15;11.05;;;;;;;;;;5053697;28;20652;-65
2021/04/10 09:18:57;;;;;;;24.63;11.68;;;;;;;;;;5054916;28;20547;-65
2021/04/10 09:21:34;;;;;;;15.20;10.45;;;;;;;;;;5054006;28;20201;-65
2021/04/10 09:24:01;;;;;;;24.17;11.30;;;;;;;;;;5053935;28;20267;-66
2021/04/10 09:26:29;;;;;;;24.58;12.05;;;;;;;;;;5053421;28;20232;-65
2021/04/10 09:29:16;;;;;;;20.63;12.68;;;;;;;;;;5053048;28;20290;-65
2021/04/10 09:31:45;;;;;;;17.20;11.77;;;;;;;;;;5052999;28;20228;-66
2021/04/10 09:34:30;;;;;;;25.25;12.00;;;;;;;;;;5053111;28;20663;-65
2021/04/10 09:36:57;;;;;;;20.35;12.05;;;;;;;;;;5053052;28;20224;-65
2021/04/10 09:39:39;;;;;;;22.27;12.45;;;;;;;;;;5052822;28;20206;-65
2021/04/10 09:42:06;;;;;;;21.40;12.13;;;;;;;;;;5044375;28;20343;-66
2021/04/10 09:44:33;;;;;;;22.73;13.88;;;;;;;;;;5053118;28;20694;-65
2021/04/10 09:47:00;;;;;;;18.40;11.93;;;;;;;;;;5052921;28;20196;-65
2021/04/10 09:49:39;;;;;;;21.48;12.02;;;;;;;;;;5053075;28;20289;-65
2021/04/10 09:52:06;;;;;;;16.85;12.65;;;;;;;;;;5053398;28;20258;-66
2021/04/10 09:54:33;;;;;;;18.55;11.77;;;;;;;;;;5053084;28;20203;-65
2021/04/10 09:57:00;;;;;;;25.90;12.52;;;;;;;;;;5053215;28;20417;-65
2021/04/10 09:59:28;;;;;;;15.82;12.50;;;;;;;;;;5053110;28;20283;-65
2021/04/10 10:01:55;;;;;;;27.08;12.80;;;;;;;;;;5052709;28;20658;-67
2021/04/10 10:04:22;;;;;;;24.30;13.10;;;;;;;;;;5053195;28;20247;-66
2021/04/10 10:06:51;;;;;;;19.55;12.15;;;;;;;;;;5053022;28;20207;-65
2021/04/10 10:09:22;;;;;;;23.80;14.10;;;;;;;;;;5053209;28;20249;-65
2021/04/10 10:11:50;;;;;;;21.42;13.27;;;;;;;;;;5052983;28;20258;-67
2021/04/10 10:14:16;;;;;;;20.15;12.45;;;;;;;;;;5052766;28;20745;-65
2021/04/10 10:16:44;;;;;;;23.75;14.30;;;;;;;;;;5052642;28;20291;-67
2021/04/10 10:19:15;;;;;;;24.15;14.63;;;;;;;;;;5052991;28;20228;-65
2021/04/10 10:21:42;;;;;;;23.70;14.38;;;;;;;;;;5052679;28;20706;-65
2021/04/10 10:24:09;;;;;;;23.25;13.73;;;;;;;;;;5053684;28;20250;-66
2021/04/10 10:26:38;;;;;;;32.25;17.33;;;;;;;;;;5054349;28;20191;-66
2021/04/10 10:29:06;;;;;;;24.70;14.60;;;;;;;;;;5052486;28;20242;-66
2021/04/10 10:31:34;;;;;;;22.83;13.40;;;;;;;;;;5053023;28;20294;-66
2021/04/10 10:34:05;;;;;;;29.65;12.55;;;;;;;;;;5056106;28;20691;-66
2021/04/10 10:36:33;;;;;;;25.10;13.60;;;;;;;;;;5056685;28;20555;-66
2021/04/10 10:39:00;;;;;;;25.85;14.05;;;;;;;;;;5056909;28;20234;-66
2021/04/10 10:41:27;;;;;;;21.05;11.80;;;;;;;;;;5056762;28;20287;-65
2021/04/10 10:44:00;;;;;;;26.17;14.80;;;;;;;;;;5055972;28;20224;-66
2021/04/10 10:46:27;;;;;;;21.85;13.30;;;;;;;;;;5055955;28;20180;-66
2021/04/10 10:48:54;;;;;;;19.42;12.85;;;;;;;;;;5056769;28;20282;-66
2021/04/10 10:51:24;;;;;;;20.55;13.55;;;;;;;;;;5056151;28;20196;-66
2021/04/10 10:53:51;;;;;;;17.40;11.60;;;;;;;;;;5056467;28;20222;-65
2021/04/10 10:56:20;;;;;;;24.23;13.65;;;;;;;;;;5055786;28;20286;-63
2021/04/10 10:58:47;;;;;;;21.42;12.77;;;;;;;;;;5055668;28;20279;-63
2021/04/10 11:01:16;;;;;;;22.50;12.93;;;;;;;;;;5055583;28;20207;-63
2021/04/10 11:03:47;;;;;;;18.63;12.93;;;;;;;;;;5055763;28;20249;-63
2021/04/10 11:06:17;;;;;;;18.38;12.27;;;;;;;;;;5055934;28;20286;-63
2021/04/10 11:08:45;;;;;;;17.25;12.57;;;;;;;;;;5055725;28;20202;-63
2021/04/10 11:11:13;;;;;;;25.95;13.80;;;;;;;;;;5055859;28;20228;-63
2021/04/10 11:13:44;;;;;;;22.52;12.82;;;;;;;;;;5055879;28;20228;-63
2021/04/10 11:16:11;;;;;;;22.17;12.40;;;;;;;;;;5055709;28;20204;-63
2021/04/10 11:18:37;;;;;;;17.23;13.63;;;;;;;;;;5055284;28;20725;-62
2021/04/10 11:21:18;;;;;;;20.05;12.90;;;;;;;;;;5056103;28;20229;-63
2021/04/10 11:24:02;;;;;;;19.38;11.88;;;;;;;;;;5055952;28;20206;-63
2021/04/10 11:26:39;;;;;;;20.00;12.55;;;;;;;;;;5054937;28;20721;-63
2021/04/10 11:29:27;;;;;;;18.95;12.00;;;;;;;;;;5055093;28;20184;-63
2021/04/10 11:32:09;;;;;;;21.65;11.90;;;;;;;;;;5052009;28;20284;-64
2021/04/10 11:34:37;;;;;;;20.25;12.50;;;;;;;;;;5054854;28;20229;-62
2021/04/10 11:37:04;;;;;;;22.15;10.98;;;;;;;;;;5054383;28;20226;-63
2021/04/10 11:39:47;;;;;;;22.02;10.75;;;;;;;;;;5055084;28;20214;-63
2021/04/10 11:42:21;;;;;;;21.95;11.65;;;;;;;;;;5055468;28;20204;-62
2021/04/10 11:44:47;;;;;;;19.13;11.15;;;;;;;;;;5054435;28;20228;-63
2021/04/10 11:47:19;;;;;;;16.58;11.25;;;;;;;;;;5055603;28;20202;-63
2021/04/10 11:49:46;;;;;;;16.88;11.20;;;;;;;;;;5054761;28;20191;-63
2021/04/10 11:52:13;;;;;;;17.58;11.30;;;;;;;;;;5055179;28;20580;-63
2021/04/10 11:54:41;;;;;;;18.85;10.82;;;;;;;;;;5054642;28;20207;-64
2021/04/10 11:57:08;;;;;;;14.80;10.07;;;;;;;;;;5054951;28;20228;-63
2021/04/10 11:59:36;;;;;;;12.50;10.73;;;;;;;;;;5055175;28;20666;-67
2021/04/10 12:02:03;;;;;;;18.63;10.32;;;;;;;;;;5054463;28;20211;-70
2021/04/10 12:04:31;;;;;;;20.67;11.05;;;;;;;;;;5055029;28;20597;-67
2021/04/10 12:07:04;;;;;;;17.35;10.25;;;;;;;;;;5054773;28;20271;-68
2021/04/10 12:09:33;;;;;;;15.68;9.80;;;;;;;;;;5054255;28;20259;-68
2021/04/10 12:12:01;;;;;;;20.52;11.77;;;;;;;;;;5054366;28;20224;-70
2021/04/10 12:14:28;;;;;;;21.02;11.13;;;;;;;;;;5054275;28;20228;-72
2021/04/10 12:16:55;;;;;;;16.65;11.63;;;;;;;;;;5054161;28;20205;-71
2021/04/10 12:19:23;;;;;;;18.45;10.70;;;;;;;;;;5054127;28;20204;-71
2021/04/10 12:21:50;;;;;;;18.50;9.68;;;;;;;;;;5055174;28;20204;-67
2021/04/10 12:24:16;;;;;;;19.60;11.82;;;;;;;;;;5054065;28;20208;-66
2021/04/10 12:26:43;;;;;;;12.57;9.88;;;;;;;;;;5054021;28;20291;-70
2021/04/10 12:29:11;;;;;;;17.23;10.95;;;;;;;;;;5054136;28;20280;-65
2021/04/10 12:31:38;;;;;;;22.38;10.60;;;;;;;;;;5054325;28;20202;-66
2021/04/10 12:34:05;;;;;;;19.10;10.73;;;;;;;;;;5054212;28;20193;-66
2021/04/10 12:36:32;;;;;;;29.55;11.52;;;;;;;;;;5053803;28;20194;-66
2021/04/10 12:38:59;;;;;;;18.02;11.45;;;;;;;;;;5053792;28;20230;-67
2021/04/10 12:41:25;;;;;;;27.58;12.43;;;;;;;;;;5053897;28;20240;-66
2021/04/10 12:43:52;;;;;;;20.00;12.05;;;;;;;;;;5053716;28;20310;-66
2021/04/10 12:46:20;;;;;;;20.98;12.00;;;;;;;;;;5053707;28;20292;-66
2021/04/10 12:48:47;;;;;;;19.80;12.00;;;;;;;;;;5053902;28;20192;-66
2021/04/10 12:51:14;;;;;;;24.92;13.40;;;;;;;;;;5053977;28;20196;-67
2021/04/10 12:53:41;;;;;;;21.65;13.90;;;;;;;;;;5053813;28;20757;-66
2021/04/10 12:56:08;;;;;;;25.83;13.77;;;;;;;;;;5057475;28;20556;-66
2021/04/10 12:58:35;;;;;;;19.38;13.02;;;;;;;;;;5068409;28;20285;-66
2021/04/10 13:01:03;;;;;;;22.60;13.95;;;;;;;;;;5073225;28;20195;-66
2021/04/10 13:03:31;;;;;;;20.15;12.13;;;;;;;;;;5073691;28;20199;-66
2021/04/10 13:05:58;;;;;;;25.38;13.32;;;;;;;;;;5073964;28;20737;-67
2021/04/10 13:08:24;;;;;;;25.10;15.65;;;;;;;;;;5074390;28;20205;-66
2021/04/10 13:10:51;;;;;;;16.75;13.48;;;;;;;;;;5073670;28;20196;-67
2021/04/10 13:13:20;;;;;;;26.60;14.27;;;;;;;;;;5073764;28;20219;-67
2021/04/10 13:15:47;;;;;;;23.73;14.75;;;;;;;;;;5073559;28;20195;-66
2021/04/10 13:18:14;;;;;;;25.10;15.15;;;;;;;;;;5073866;28;20353;-66
2021/04/10 13:20:41;;;;;;;29.63;14.95;;;;;;;;;;5073409;28;20228;-65
2021/04/10 13:23:08;;;;;;;21.52;14.07;;;;;;;;;;5073238;28;20748;-66
2021/04/10 13:25:35;;;;;;;22.67;14.55;;;;;;;;;;5064785;28;20676;-65
2021/04/10 13:28:02;;;;;;;20.73;14.88;;;;;;;;;;5053458;28;20649;-66
2021/04/10 13:30:29;;;;;;;27.42;15.35;;;;;;;;;;5053022;28;20272;-67
2021/04/10 13:32:55;;;;;;;30.90;15.02;;;;;;;;;;5053877;28;20228;-66
2021/04/10 13:35:25;;;;;;;25.98;16.10;;;;;;;;;;5053061;28;20685;-66
2021/04/10 13:37:53;;;;;;;25.17;16.30;;;;;;;;;;5053312;28;20645;-66
2021/04/10 13:40:20;;;;;;;32.25;16.02;;;;;;;;;;5053001;28;20729;-66
2021/04/10 13:42:47;;;;;;;25.00;15.88;;;;;;;;;;5053140;28;20204;-66
2021/04/10 13:45:14;;;;;;;22.10;15.05;;;;;;;;;;5053688;28;20745;-67
2021/04/10 13:47:41;;;;;;;20.15;15.02;;;;;;;;;;5053284;28;20274;-65
2021/04/10 13:50:09;;;;;;;21.33;15.20;;;;;;;;;;5053190;28;20224;-66
2021/04/10 13:52:35;;;;;;;25.50;15.27;;;;;;;;;;5052820;28;20262;-66
2021/04/10 13:55:03;;;;;;;23.92;15.43;;;;;;;;;;5053039;28;20295;-64
2021/04/10 13:57:30;;;;;;;23.52;15.32;;;;;;;;;;5053097;28;20191;-67
2021/04/10 13:59:57;;;;;;;23.70;14.82;;;;;;;;;;5053027;28;20192;-65
2021/04/10 14:02:25;;;;;;;22.33;15.65;;;;;;;;;;5053072;28;20603;-65
2021/04/10 14:05:07;;;;;;;26.92;15.38;;;;;;;;;;5052705;28;20192;-65
2021/04/10 14:07:35;;;;;;;26.88;15.82;;;;;;;;;;5055932;28;20218;-66
2021/04/10 14:10:02;;;;;;;23.15;14.75;;;;;;;;;;5056750;28;20233;-65
2021/04/10 14:12:29;;;;;;;31.05;15.95;;;;;;;;;;5056855;28;20220;-65
2021/04/10 14:14:56;;;;;;;29.73;15.65;;;;;;;;;;5056587;28;20197;-67
2021/04/10 14:17:23;;;;;;;28.23;16.77;;;;;;;;;;5056491;28;20283;-66
2021/04/10 14:19:50;;;;;;;20.73;15.55;;;;;;;;;;5056540;28;20235;-66
2021/04/10 14:22:18;;;;;;;27.48;14.88;;;;;;;;;;5057058;28;20297;-65
2021/04/10 14:24:45;;;;;;;28.08;17.30;;;;;;;;;;5059068;28;20284;-65